sensor_id;sensor_type;location;lat;lon;timestamp;temperature;humidity
19110;DHT22;9687;50.836;12.060;2023-04-12T05:06:21;8.50;75.40
19110;DHT22;9687;50.836;12.060;2023-04-12T05:08:49;8.50;75.60
19110;DHT22;9687;50.836;12.060;2023-04-12T05:11:17;8.50;76.00
19110;DHT22;9687;50.836;12.060;2023-04-12T05:13:44;8.50;76.20
19110;DHT22;9687;50.836;12.060;2023-04-12T05:16:11;8.50;76.40
19110;DHT22;9687;50.836;12.060;2023-04-12T05:18:39;8.50;76.20
19110;DHT22;9687;50.836;12.060;2023-04-12T05:21:06;8.50;76.50
19110;DHT22;9687;50.836;12.060;2023-04-12T05:23:35;8.60;76.40
19110;DHT22;9687;50.836;12.060;2023-04-12T05:26:03;8.60;76.20
19110;DHT22;9687;50.836;12.060;2023-04-12T05:28:30;8.70;76.70
19110;DHT22;9687;50.836;12.060;2023-04-12T05:30:58;8.70;76.60
19110;DHT22;9687;50.836;12.060;2023-04-12T05:33:25;8.60;76.60
19110;DHT22;9687;50.836;12.060;2023-04-12T05:35:52;8.70;76.80
19110;DHT22;9687;50.836;12.060;2023-04-12T05:38:20;8.70;77.10
19110;DHT22;9687;50.836;12.060;2023-04-12T05:40:49;8.70;77.10
19110;DHT22;9687;50.836;12.060;2023-04-12T05:43:17;8.70;77.10
19110;DHT22;9687;50.836;12.060;2023-04-12T05:45:44;8.70;76.90
19110;DHT22;9687;50.836;12.060;2023-04-12T05:48:11;8.70;76.90
19110;DHT22;9687;50.836;12.060;2023-04-12T05:50:39;8.80;76.90
19110;DHT22;9687;50.836;12.060;2023-04-12T05:53:07;8.80;76.70
19110;DHT22;9687;50.836;12.060;2023-04-12T05:55:35;8.80;75.80
19110;DHT22;9687;50.836;12.060;2023-04-12T05:58:04;8.90;76.40
19110;DHT22;9687;50.836;12.060;2023-04-12T06:00:31;9.00;76.40
19110;DHT22;9687;50.836;12.060;2023-04-12T06:02:59;9.00;76.20
19110;DHT22;9687;50.836;12.060;2023-04-12T08:07:44;12.70;67.70
19110;DHT22;9687;50.836;12.060;2023-04-12T08:10:12;12.70;67.80
19110;DHT22;9687;50.836;12.060;2023-04-12T08:12:41;12.60;67.50
19110;DHT22;9687;50.836;12.060;2023-04-12T08:15:11;12.60;68.20
19110;DHT22;9687;50.836;12.060;2023-04-12T08:17:46;12.50;67.60
19110;DHT22;9687;50.836;12.060;2023-04-12T08:20:15;12.50;67.90
19110;DHT22;9687;50.836;12.060;2023-04-12T08:22:45;12.40;67.90
19110;DHT22;9687;50.836;12.060;2023-04-12T08:25:13;12.40;68.60
19110;DHT22;9687;50.836;12.060;2023-04-12T08:27:42;12.40;69.10
19110;DHT22;9687;50.836;12.060;2023-04-12T08:30:10;12.50;69.90
19110;DHT22;9687;50.836;12.060;2023-04-12T08:32:37;12.70;69.60
19110;DHT22;9687;50.836;12.060;2023-04-12T08:35:05;12.80;69.20
19110;DHT22;9687;50.836;12.060;2023-04-12T08:37:33;12.90;68.70
19110;DHT22;9687;50.836;12.060;2023-04-12T08:40:02;12.80;67.50
19110;DHT22;9687;50.836;12.060;2023-04-12T08:42:32;12.80;66.60
19110;DHT22;9687;50.836;12.060;2023-04-12T08:45:03;12.80;67.00
19110;DHT22;9687;50.836;12.060;2023-04-12T08:47:33;12.70;66.70
19110;DHT22;9687;50.836;12.060;2023-04-12T08:50:02;12.60;66.90
19110;DHT22;9687;50.836;12.060;2023-04-12T08:52:31;12.70;66.90
19110;DHT22;9687;50.836;12.060;2023-04-12T08:55:02;12.60;67.20
19110;DHT22;9687;50.836;12.060;2023-04-12T08:57:31;12.60;66.70
19110;DHT22;9687;50.836;12.060;2023-04-12T08:59:59;12.70;66.70
19110;DHT22;9687;50.836;12.060;2023-04-12T09:02:27;12.60;66.50
19110;DHT22;9687;50.836;12.060;2023-04-12T09:04:55;12.70;66.90
19110;DHT22;9687;50.836;12.060;2023-04-12T09:07:25;12.80;66.70
19110;DHT22;9687;50.836;12.060;2023-04-12T09:09:57;12.80;66.30
19110;DHT22;9687;50.836;12.060;2023-04-12T09:12:27;12.80;65.80
19110;DHT22;9687;50.836;12.060;2023-04-12T09:17:38;12.80;65.40
19110;DHT22;9687;50.836;12.060;2023-04-12T09:22:50;12.70;66.10
19110;DHT22;9687;50.836;12.060;2023-04-12T09:25:21;12.70;65.90
19110;DHT22;9687;50.836;12.060;2023-04-12T09:28:03;12.70;65.70
19110;DHT22;9687;50.836;12.060;2023-04-12T09:30:39;12.70;65.50
19110;DHT22;9687;50.836;12.060;2023-04-12T09:33:10;12.80;65.80
19110;DHT22;9687;50.836;12.060;2023-04-12T09:35:39;12.80;65.10
19110;DHT22;9687;50.836;12.060;2023-04-12T09:38:07;12.80;64.90
19110;DHT22;9687;50.836;12.060;2023-04-12T09:40:36;12.80;65.00
19110;DHT22;9687;50.836;12.060;2023-04-12T09:43:05;12.70;65.00
19110;DHT22;9687;50.836;12.060;2023-04-12T09:45:33;12.70;65.10
19110;DHT22;9687;50.836;12.060;2023-04-12T09:48:02;12.60;65.50
19110;DHT22;9687;50.836;12.060;2023-04-12T09:50:30;12.60;65.90
19110;DHT22;9687;50.836;12.060;2023-04-12T09:52:59;12.60;66.30
19110;DHT22;9687;50.836;12.060;2023-04-12T09:55:27;12.60;66.80
19110;DHT22;9687;50.836;12.060;2023-04-12T09:57:56;12.70;66.70
19110;DHT22;9687;50.836;12.060;2023-04-12T10:00:25;12.80;67.00
19110;DHT22;9687;50.836;12.060;2023-04-12T10:02:54;13.00;66.80
19110;DHT22;9687;50.836;12.060;2023-04-12T10:05:22;13.20;66.50
19110;DHT22;9687;50.836;12.060;2023-04-12T10:07:51;13.30;66.10
19110;DHT22;9687;50.836;12.060;2023-04-12T10:10:19;13.40;65.10
19110;DHT22;9687;50.836;12.060;2023-04-12T10:12:47;13.40;63.90
19110;DHT22;9687;50.836;12.060;2023-04-12T10:15:14;13.40;64.10
19110;DHT22;9687;50.836;12.060;2023-04-12T10:17:44;13.40;64.30
19110;DHT22;9687;50.836;12.060;2023-04-12T10:20:12;13.30;64.50
19110;DHT22;9687;50.836;12.060;2023-04-12T10:22:40;13.20;64.30
19110;DHT22;9687;50.836;12.060;2023-04-12T10:25:09;13.20;64.30
19110;DHT22;9687;50.836;12.060;2023-04-12T10:27:38;13.10;64.60
19110;DHT22;9687;50.836;12.060;2023-04-12T10:30:18;13.00;64.50
19110;DHT22;9687;50.836;12.060;2023-04-12T10:32:49;13.00;65.00
19110;DHT22;9687;50.836;12.060;2023-04-12T10:35:16;13.00;65.40
19110;DHT22;9687;50.836;12.060;2023-04-12T10:37:59;13.00;65.60
19110;DHT22;9687;50.836;12.060;2023-04-12T10:40:27;12.90;65.50
19110;DHT22;9687;50.836;12.060;2023-04-12T10:45:42;12.80;66.20
19110;DHT22;9687;50.836;12.060;2023-04-12T10:48:23;12.80;66.00
19110;DHT22;9687;50.836;12.060;2023-04-12T10:53:44;12.70;66.20
19110;DHT22;9687;50.836;12.060;2023-04-12T10:58:58;12.60;66.80
19110;DHT22;9687;50.836;12.060;2023-04-12T11:01:26;12.70;67.40
19110;DHT22;9687;50.836;12.060;2023-04-12T13:09:11;11.40;85.00
19110;DHT22;9687;50.836;12.060;2023-04-12T13:11:38;11.40;84.70
19110;DHT22;9687;50.836;12.060;2023-04-12T13:14:05;11.40;85.10
19110;DHT22;9687;50.836;12.060;2023-04-12T13:16:33;11.50;85.10
19110;DHT22;9687;50.836;12.060;2023-04-12T13:19:00;11.50;84.40
19110;DHT22;9687;50.836;12.060;2023-04-12T13:21:28;11.50;84.10
19110;DHT22;9687;50.836;12.060;2023-04-12T13:23:57;11.50;84.30
19110;DHT22;9687;50.836;12.060;2023-04-12T13:26:26;11.50;83.90
19110;DHT22;9687;50.836;12.060;2023-04-12T13:28:53;11.50;83.70
19110;DHT22;9687;50.836;12.060;2023-04-12T13:31:22;11.60;83.60
19110;DHT22;9687;50.836;12.060;2023-04-12T13:33:50;11.60;83.50
19110;DHT22;9687;50.836;12.060;2023-04-12T13:36:17;11.60;83.40
19110;DHT22;9687;50.836;12.060;2023-04-12T13:38:45;11.60;83.80
19110;DHT22;9687;50.836;12.060;2023-04-12T13:41:12;11.60;84.10
19110;DHT22;9687;50.836;12.060;2023-04-12T13:43:41;11.60;84.00
19110;DHT22;9687;50.836;12.060;2023-04-12T13:46:08;11.60;84.20
19110;DHT22;9687;50.836;12.060;2023-04-12T13:48:37;11.70;84.50
19110;DHT22;9687;50.836;12.060;2023-04-12T13:51:05;11.70;84.90
19110;DHT22;9687;50.836;12.060;2023-04-12T13:53:32;11.70;85.00
19110;DHT22;9687;50.836;12.060;2023-04-12T13:56:02;11.80;84.90
19110;DHT22;9687;50.836;12.060;2023-04-12T13:58:29;11.70;84.90
19110;DHT22;9687;50.836;12.060;2023-04-12T14:00:58;11.80;84.80
19110;DHT22;9687;50.836;12.060;2023-04-12T14:03:25;11.80;84.80
19110;DHT22;9687;50.836;12.060;2023-04-12T14:05:54;11.90;85.00
19110;DHT22;9687;50.836;12.060;2023-04-12T15:09:55;12.40;85.60
19110;DHT22;9687;50.836;12.060;2023-04-12T15:12:23;12.40;85.70
19110;DHT22;9687;50.836;12.060;2023-04-12T15:14:50;12.40;85.90
19110;DHT22;9687;50.836;12.060;2023-04-12T15:17:18;12.40;85.80
19110;DHT22;9687;50.836;12.060;2023-04-12T15:19:46;12.40;85.80
19110;DHT22;9687;50.836;12.060;2023-04-12T15:22:13;12.50;86.10
19110;DHT22;9687;50.836;12.060;2023-04-12T15:24:42;12.50;86.10
19110;DHT22;9687;50.836;12.060;2023-04-12T15:27:10;12.40;86.10
19110;DHT22;9687;50.836;12.060;2023-04-12T15:29:38;12.50;86.40
19110;DHT22;9687;50.836;12.060;2023-04-12T15:32:07;12.50;86.40
19110;DHT22;9687;50.836;12.060;2023-04-12T15:34:35;12.50;86.50
19110;DHT22;9687;50.836;12.060;2023-04-12T15:37:04;12.50;86.70
19110;DHT22;9687;50.836;12.060;2023-04-12T15:39:34;12.60;86.80
19110;DHT22;9687;50.836;12.060;2023-04-12T15:42:03;12.60;86.80
19110;DHT22;9687;50.836;12.060;2023-04-12T15:44:35;12.60;87.10
19110;DHT22;9687;50.836;12.060;2023-04-12T15:47:04;12.60;87.30
19110;DHT22;9687;50.836;12.060;2023-04-12T15:49:32;12.60;87.50
19110;DHT22;9687;50.836;12.060;2023-04-12T15:52:01;12.60;87.90
19110;DHT22;9687;50.836;12.060;2023-04-12T15:54:30;12.60;88.10
19110;DHT22;9687;50.836;12.060;2023-04-12T15:56:57;12.60;88.20
19110;DHT22;9687;50.836;12.060;2023-04-12T15:59:36;12.70;88.20
19110;DHT22;9687;50.836;12.060;2023-04-12T16:02:08;12.70;88.20
19110;DHT22;9687;50.836;12.060;2023-04-12T16:04:40;12.70;88.40
19110;DHT22;9687;50.836;12.060;2023-04-12T16:07:37;12.70;88.80
19110;DHT22;9687;50.836;12.060;2023-04-12T16:10:07;12.80;88.70
19110;DHT22;9687;50.836;12.060;2023-04-12T16:12:35;12.80;88.80
19110;DHT22;9687;50.836;12.060;2023-04-12T16:15:04;12.80;89.40
19110;DHT22;9687;50.836;12.060;2023-04-12T16:17:32;12.80;89.40
19110;DHT22;9687;50.836;12.060;2023-04-12T16:20:02;12.90;89.50
19110;DHT22;9687;50.836;12.060;2023-04-12T16:22:31;12.90;89.60
19110;DHT22;9687;50.836;12.060;2023-04-12T16:24:58;12.90;89.90
19110;DHT22;9687;50.836;12.060;2023-04-12T16:27:26;12.90;89.90
19110;DHT22;9687;50.836;12.060;2023-04-12T16:29:59;12.70;90.00
19110;DHT22;9687;50.836;12.060;2023-04-12T16:32:29;12.80;90.20
19110;DHT22;9687;50.836;12.060;2023-04-12T16:34:57;12.80;90.10
19110;DHT22;9687;50.836;12.060;2023-04-12T16:37:27;12.80;90.20
19110;DHT22;9687;50.836;12.060;2023-04-12T16:39:58;12.80;90.50
19110;DHT22;9687;50.836;12.060;2023-04-12T16:42:25;12.70;90.40
19110;DHT22;9687;50.836;12.060;2023-04-12T16:44:58;12.70;90.40
19110;DHT22;9687;50.836;12.060;2023-04-12T16:47:27;12.70;90.70
19110;DHT22;9687;50.836;12.060;2023-04-12T16:49:56;12.70;90.40
19110;DHT22;9687;50.836;12.060;2023-04-12T16:52:23;12.70;90.40
19110;DHT22;9687;50.836;12.060;2023-04-12T16:54:51;12.70;90.40
19110;DHT22;9687;50.836;12.060;2023-04-12T16:57:18;12.70;90.50
19110;DHT22;9687;50.836;12.060;2023-04-12T16:59:46;12.60;90.60
19110;DHT22;9687;50.836;12.060;2023-04-12T17:02:13;12.60;90.70
19110;DHT22;9687;50.836;12.060;2023-04-12T17:04:42;12.60;90.90
19110;DHT22;9687;50.836;12.060;2023-04-12T17:07:12;12.60;90.80
19110;DHT22;9687;50.836;12.060;2023-04-12T17:09:39;12.60;91.00
19110;DHT22;9687;50.836;12.060;2023-04-12T17:12:07;12.60;91.10
19110;DHT22;9687;50.836;12.060;2023-04-12T17:14:36;12.60;91.10
19110;DHT22;9687;50.836;12.060;2023-04-12T17:17:05;12.60;91.20
19110;DHT22;9687;50.836;12.060;2023-04-12T17:19:36;12.60;91.30
19110;DHT22;9687;50.836;12.060;2023-04-12T17:22:04;12.50;91.20
19110;DHT22;9687;50.836;12.060;2023-04-12T17:24:36;12.50;91.20
19110;DHT22;9687;50.836;12.060;2023-04-12T17:27:07;12.50;91.30
19110;DHT22;9687;50.836;12.060;2023-04-12T17:29:39;12.50;91.40
19110;DHT22;9687;50.836;12.060;2023-04-12T17:32:06;12.60;91.40
19110;DHT22;9687;50.836;12.060;2023-04-12T17:34:35;12.50;91.40
19110;DHT22;9687;50.836;12.060;2023-04-12T17:37:10;12.50;91.70
19110;DHT22;9687;50.836;12.060;2023-04-12T17:42:59;12.40;91.60
19110;DHT22;9687;50.836;12.060;2023-04-12T17:45:30;12.40;91.80
19110;DHT22;9687;50.836;12.060;2023-04-12T17:47:59;12.40;91.90
19110;DHT22;9687;50.836;12.060;2023-04-12T17:50:30;12.40;92.30
19110;DHT22;9687;50.836;12.060;2023-04-12T17:52:58;12.30;92.20
19110;DHT22;9687;50.836;12.060;2023-04-12T17:55:26;12.40;92.30
19110;DHT22;9687;50.836;12.060;2023-04-12T17:57:53;12.30;92.20
19110;DHT22;9687;50.836;12.060;2023-04-12T18:00:23;12.30;92.60
19110;DHT22;9687;50.836;12.060;2023-04-12T18:02:51;12.30;92.80
19110;DHT22;9687;50.836;12.060;2023-04-12T18:05:18;12.30;92.80
19110;DHT22;9687;50.836;12.060;2023-04-12T18:07:46;12.30;92.80
19110;DHT22;9687;50.836;12.060;2023-04-12T20:10:02;12.40;95.70
19110;DHT22;9687;50.836;12.060;2023-04-12T20:12:30;12.30;95.70
19110;DHT22;9687;50.836;12.060;2023-04-12T20:14:58;12.40;95.80
19110;DHT22;9687;50.836;12.060;2023-04-12T20:17:26;12.40;96.00
19110;DHT22;9687;50.836;12.060;2023-04-12T20:19:54;12.40;95.90
19110;DHT22;9687;50.836;12.060;2023-04-12T20:22:21;12.40;95.90
19110;DHT22;9687;50.836;12.060;2023-04-12T20:24:49;12.40;95.90
19110;DHT22;9687;50.836;12.060;2023-04-12T20:27:19;12.40;95.90
19110;DHT22;9687;50.836;12.060;2023-04-12T20:29:48;12.40;96.00
19110;DHT22;9687;50.836;12.060;2023-04-12T20:32:16;12.40;96.10
19110;DHT22;9687;50.836;12.060;2023-04-12T20:34:44;12.40;96.10
19110;DHT22;9687;50.836;12.060;2023-04-12T20:37:14;12.40;96.00
19110;DHT22;9687;50.836;12.060;2023-04-12T20:39:42;12.40;96.00
19110;DHT22;9687;50.836;12.060;2023-04-12T20:42:10;12.40;95.90
19110;DHT22;9687;50.836;12.060;2023-04-12T20:44:39;12.40;95.80
19110;DHT22;9687;50.836;12.060;2023-04-12T20:47:06;12.40;95.80
19110;DHT22;9687;50.836;12.060;2023-04-12T20:49:35;12.40;95.80
19110;DHT22;9687;50.836;12.060;2023-04-12T20:52:02;12.40;95.60
19110;DHT22;9687;50.836;12.060;2023-04-12T20:54:30;12.40;95.60
19110;DHT22;9687;50.836;12.060;2023-04-12T20:56:58;12.40;95.40
19110;DHT22;9687;50.836;12.060;2023-04-12T20:59:29;12.40;95.30
19110;DHT22;9687;50.836;12.060;2023-04-12T21:01:57;12.40;95.20
19110;DHT22;9687;50.836;12.060;2023-04-12T21:04:25;12.40;95.20
19110;DHT22;9687;50.836;12.060;2023-04-12T21:06:53;12.40;95.10
19110;DHT22;9687;50.836;12.060;2023-04-12T21:09:22;12.40;95.10
19110;DHT22;9687;50.836;12.060;2023-04-12T21:11:49;12.40;95.10
19110;DHT22;9687;50.836;12.060;2023-04-12T21:14:18;12.40;95.10
19110;DHT22;9687;50.836;12.060;2023-04-12T21:16:46;12.40;95.00
19110;DHT22;9687;50.836;12.060;2023-04-12T21:19:16;12.40;94.90
19110;DHT22;9687;50.836;12.060;2023-04-12T21:21:43;12.40;94.90
19110;DHT22;9687;50.836;12.060;2023-04-12T21:24:11;12.40;94.80
19110;DHT22;9687;50.836;12.060;2023-04-12T21:26:38;12.40;94.80
19110;DHT22;9687;50.836;12.060;2023-04-12T21:29:07;12.40;94.80
19110;DHT22;9687;50.836;12.060;2023-04-12T21:31:34;12.40;94.70
19110;DHT22;9687;50.836;12.060;2023-04-12T21:34:03;12.50;94.70
19110;DHT22;9687;50.836;12.060;2023-04-12T21:36:33;12.40;94.60
19110;DHT22;9687;50.836;12.060;2023-04-12T21:39:01;12.50;94.70
19110;DHT22;9687;50.836;12.060;2023-04-12T21:41:28;12.40;94.60
19110;DHT22;9687;50.836;12.060;2023-04-12T21:43:56;12.40;94.60
19110;DHT22;9687;50.836;12.060;2023-04-12T21:46:23;12.40;94.60
19110;DHT22;9687;50.836;12.060;2023-04-12T21:48:52;12.40;94.60
19110;DHT22;9687;50.836;12.060;2023-04-12T21:51:20;12.40;94.50
19110;DHT22;9687;50.836;12.060;2023-04-12T21:53:51;12.50;94.50
19110;DHT22;9687;50.836;12.060;2023-04-12T21:56:18;12.40;94.40
19110;DHT22;9687;50.836;12.060;2023-04-12T21:58:45;12.40;94.40
19110;DHT22;9687;50.836;12.060;2023-04-12T22:01:12;12.40;94.30
19110;DHT22;9687;50.836;12.060;2023-04-12T22:06:07;12.40;94.30
19110;DHT22;9687;50.836;12.060;2023-04-12T22:08:36;12.40;94.30
19110;DHT22;9687;50.836;12.060;2023-04-12T22:11:10;12.30;94.30
19110;DHT22;9687;50.836;12.060;2023-04-12T22:13:37;12.30;94.30
19110;DHT22;9687;50.836;12.060;2023-04-12T22:16:07;12.30;94.30
19110;DHT22;9687;50.836;12.060;2023-04-12T22:18:37;12.30;94.30
19110;DHT22;9687;50.836;12.060;2023-04-12T22:21:06;12.20;94.30
19110;DHT22;9687;50.836;12.060;2023-04-12T22:23:34;12.20;94.50
19110;DHT22;9687;50.836;12.060;2023-04-12T22:26:06;12.20;94.40
19110;DHT22;9687;50.836;12.060;2023-04-12T22:28:35;12.20;94.40
19110;DHT22;9687;50.836;12.060;2023-04-12T22:31:03;12.20;94.40
19110;DHT22;9687;50.836;12.060;2023-04-12T22:33:31;12.20;94.40
19110;DHT22;9687;50.836;12.060;2023-04-12T22:35:59;12.20;94.40
19110;DHT22;9687;50.836;12.060;2023-04-12T22:38:27;12.20;94.20
19110;DHT22;9687;50.836;12.060;2023-04-12T22:40:54;12.20;94.20
19110;DHT22;9687;50.836;12.060;2023-04-12T22:43:26;12.10;94.40
19110;DHT22;9687;50.836;12.060;2023-04-12T22:46:00;12.10;93.90
19110;DHT22;9687;50.836;12.060;2023-04-12T22:48:29;12.10;93.80
19110;DHT22;9687;50.836;12.060;2023-04-12T22:50:57;12.10;93.80
19110;DHT22;9687;50.836;12.060;2023-04-12T22:53:24;12.10;93.70
19110;DHT22;9687;50.836;12.060;2023-04-12T22:55:52;12.10;93.50
19110;DHT22;9687;50.836;12.060;2023-04-12T22:58:20;12.10;93.40
19110;DHT22;9687;50.836;12.060;2023-04-12T23:00:48;12.00;93.30
19110;DHT22;9687;50.836;12.060;2023-04-12T23:03:17;12.00;93.30
19110;DHT22;9687;50.836;12.060;2023-04-12T23:05:44;12.00;93.40
19110;DHT22;9687;50.836;12.060;2023-04-12T23:08:12;12.00;93.40
19110;DHT22;9687;50.836;12.060;2023-04-12T23:24:38;12.00;93.30
19110;DHT22;9687;50.836;12.060;2023-04-12T23:27:05;11.90;93.30
19110;DHT22;9687;50.836;12.060;2023-04-12T23:29:33;12.00;93.30
19110;DHT22;9687;50.836;12.060;2023-04-12T23:32:01;12.00;93.20
19110;DHT22;9687;50.836;12.060;2023-04-12T23:34:28;11.90;93.10
19110;DHT22;9687;50.836;12.060;2023-04-12T23:36:55;11.90;93.10
19110;DHT22;9687;50.836;12.060;2023-04-12T23:39:24;11.90;92.90
19110;DHT22;9687;50.836;12.060;2023-04-12T23:41:54;11.90;92.80
19110;DHT22;9687;50.836;12.060;2023-04-12T23:44:22;11.90;92.60
19110;DHT22;9687;50.836;12.060;2023-04-12T23:46:49;11.90;92.60
19110;DHT22;9687;50.836;12.060;2023-04-12T23:49:17;11.90;92.50
19110;DHT22;9687;50.836;12.060;2023-04-12T23:51:44;11.90;92.40
19110;DHT22;9687;50.836;12.060;2023-04-12T23:54:11;11.90;92.30
19110;DHT22;9687;50.836;12.060;2023-04-12T23:56:39;11.90;92.20
19110;DHT22;9687;50.836;12.060;2023-04-12T23:59:08;11.90;92.10
